sensor_id;sensor_type;location;lat;lon;timestamp;pressure;altitude;pressure_sealevel;temperature;humidity
9277;BME280;4676;42.678;23.244;2024-03-02T00:01:09;93496.94;;;8.48;100.00
9277;BME280;4676;42.678;23.244;2024-03-02T00:03:38;93440.66;;;8.06;100.00
9277;BME280;4676;42.678;23.244;2024-03-02T00:06:06;93505.66;;;8.41;100.00
9277;BME280;4676;42.678;23.244;2024-03-02T00:08:33;93499.84;;;8.39;100.00
9277;BME280;4676;42.678;23.244;2024-03-02T00:11:01;93478.56;;;8.24;100.00
9277;BME280;4676;42.678;23.244;2024-03-02T00:13:29;93503.25;;;8.38;100.00
9277;BME280;4676;42.678;23.244;2024-03-02T00:15:57;93502.50;;;8.36;100.00
9277;BME280;4676;42.678;23.244;2024-03-02T00:18:26;93504.91;;;8.39;100.00
9277;BME280;4676;42.678;23.244;2024-03-02T00:20:55;93506.47;;;8.41;100.00
9277;BME280;4676;42.678;23.244;2024-03-02T00:23:23;93494.69;;;8.20;100.00
9277;BME280;4676;42.678;23.244;2024-03-02T00:25:51;93509.22;;;8.37;100.00
9277;BME280;4676;42.678;23.244;2024-03-02T00:28:20;93501.50;;;8.40;100.00
9277;BME280;4676;42.678;23.244;2024-03-02T00:30:58;93508.94;;;8.43;100.00
9277;BME280;4676;42.678;23.244;2024-03-02T00:33:27;93514.50;;;8.51;100.00
9277;BME280;4676;42.678;23.244;2024-03-02T00:35:56;93497.19;;;8.42;100.00
9277;BME280;4676;42.678;23.244;2024-03-02T00:38:23;93498.16;;;8.39;100.00
9277;BME280;4676;42.678;23.244;2024-03-02T00:40:49;93501.25;;;8.46;100.00
9277;BME280;4676;42.678;23.244;2024-03-02T00:43:43;93505.72;;;8.39;100.00
9277;BME280;4676;42.678;23.244;2024-03-02T00:46:16;93494.25;;;8.32;100.00
9277;BME280;4676;42.678;23.244;2024-03-02T00:48:50;93499.22;;;8.34;100.00
9277;BME280;4676;42.678;23.244;2024-03-02T00:51:19;93496.69;;;8.34;100.00
9277;BME280;4676;42.678;23.244;2024-03-02T00:53:46;93494.28;;;8.31;100.00
9277;BME280;4676;42.678;23.244;2024-03-02T00:56:16;93483.44;;;8.29;100.00
9277;BME280;4676;42.678;23.244;2024-03-02T00:58:43;93501.50;;;8.40;100.00
9277;BME280;4676;42.678;23.244;2024-03-02T01:01:10;93492.28;;;8.39;100.00
9277;BME280;4676;42.678;23.244;2024-03-02T01:03:37;93504.41;;;8.51;100.00
9277;BME280;4676;42.678;23.244;2024-03-02T01:06:04;93476.31;;;8.38;100.00
9277;BME280;4676;42.678;23.244;2024-03-02T01:08:34;93491.53;;;8.37;100.00
9277;BME280;4676;42.678;23.244;2024-03-02T01:11:01;93483.47;;;8.27;100.00
9277;BME280;4676;42.678;23.244;2024-03-02T01:13:28;93490.03;;;8.33;100.00
9277;BME280;4676;42.678;23.244;2024-03-02T01:15:55;93474.41;;;8.23;100.00
9277;BME280;4676;42.678;23.244;2024-03-02T01:18:22;93477.13;;;8.39;100.00
9277;BME280;4676;42.678;23.244;2024-03-02T01:20:49;93480.53;;;8.38;100.00
9277;BME280;4676;42.678;23.244;2024-03-02T01:23:18;93457.44;;;8.27;100.00
9277;BME280;4676;42.678;23.244;2024-03-02T01:25:46;93472.53;;;8.28;100.00
9277;BME280;4676;42.678;23.244;2024-03-02T01:28:13;93471.69;;;8.28;100.00
9277;BME280;4676;42.678;23.244;2024-03-02T01:30:40;93458.50;;;8.21;100.00
9277;BME280;4676;42.678;23.244;2024-03-02T01:33:07;93465.25;;;8.41;100.00
9277;BME280;4676;42.678;23.244;2024-03-02T01:35:34;93468.31;;;8.27;100.00
9277;BME280;4676;42.678;23.244;2024-03-02T01:38:01;93444.75;;;8.08;100.00
9277;BME280;4676;42.678;23.244;2024-03-02T01:40:28;93465.09;;;8.24;100.00
9277;BME280;4676;42.678;23.244;2024-03-02T01:42:56;93461.16;;;8.18;100.00
9277;BME280;4676;42.678;23.244;2024-03-02T01:45:23;93459.50;;;8.17;100.00
9277;BME280;4676;42.678;23.244;2024-03-02T01:47:50;93449.47;;;8.16;100.00
9277;BME280;4676;42.678;23.244;2024-03-02T01:50:24;93460.84;;;8.26;100.00
9277;BME280;4676;42.678;23.244;2024-03-02T01:52:52;93454.13;;;8.25;100.00
9277;BME280;4676;42.678;23.244;2024-03-02T01:55:19;93455.84;;;8.24;100.00
9277;BME280;4676;42.678;23.244;2024-03-02T01:57:46;93455.59;;;8.30;100.00
9277;BME280;4676;42.678;23.244;2024-03-02T02:00:15;93454.38;;;8.40;100.00
9277;BME280;4676;42.678;23.244;2024-03-02T02:02:42;93457.81;;;8.38;100.00
9277;BME280;4676;42.678;23.244;2024-03-02T02:05:09;93459.47;;;8.39;100.00
9277;BME280;4676;42.678;23.244;2024-03-02T02:07:37;93463.88;;;8.34;100.00
9277;BME280;4676;42.678;23.244;2024-03-02T02:10:04;93457.22;;;8.11;100.00
9277;BME280;4676;42.678;23.244;2024-03-02T02:12:32;93457.84;;;7.96;100.00
9277;BME280;4676;42.678;23.244;2024-03-02T02:14:58;93458.03;;;7.91;100.00
9277;BME280;4676;42.678;23.244;2024-03-02T02:17:27;93463.66;;;7.98;100.00
9277;BME280;4676;42.678;23.244;2024-03-02T02:19:53;93453.09;;;7.88;100.00
9277;BME280;4676;42.678;23.244;2024-03-02T02:22:22;93461.00;;;7.81;100.00
9277;BME280;4676;42.678;23.244;2024-03-02T02:24:48;93445.47;;;7.70;100.00
9277;BME280;4676;42.678;23.244;2024-03-02T02:27:15;93449.84;;;7.65;100.00
9277;BME280;4676;42.678;23.244;2024-03-02T02:29:42;93458.31;;;7.42;100.00
9277;BME280;4676;42.678;23.244;2024-03-02T02:32:08;93451.38;;;7.47;100.00
9277;BME280;4676;42.678;23.244;2024-03-02T02:34:36;93448.88;;;7.47;100.00
9277;BME280;4676;42.678;23.244;2024-03-02T02:37:02;93450.50;;;7.48;100.00
9277;BME280;4676;42.678;23.244;2024-03-02T02:39:31;93447.56;;;7.59;100.00
9277;BME280;4676;42.678;23.244;2024-03-02T02:41:57;93455.19;;;7.57;100.00
9277;BME280;4676;42.678;23.244;2024-03-02T02:44:26;93447.03;;;7.50;100.00
9277;BME280;4676;42.678;23.244;2024-03-02T02:46:53;93457.41;;;7.43;100.00
9277;BME280;4676;42.678;23.244;2024-03-02T02:49:19;93457.28;;;7.46;100.00
9277;BME280;4676;42.678;23.244;2024-03-02T02:51:46;93454.91;;;7.43;100.00
9277;BME280;4676;42.678;23.244;2024-03-02T02:54:13;93460.59;;;7.48;100.00
9277;BME280;4676;42.678;23.244;2024-03-02T02:56:41;93458.13;;;7.46;100.00
9277;BME280;4676;42.678;23.244;2024-03-02T02:59:07;93460.53;;;7.49;100.00
9277;BME280;4676;42.678;23.244;2024-03-02T03:01:34;93454.44;;;7.55;100.00
9277;BME280;4676;42.678;23.244;2024-03-02T03:04:01;93457.22;;;7.49;100.00
9277;BME280;4676;42.678;23.244;2024-03-02T03:06:27;93458.91;;;7.48;100.00
9277;BME280;4676;42.678;23.244;2024-03-02T03:08:54;93460.47;;;7.51;100.00
9277;BME280;4676;42.678;23.244;2024-03-02T03:11:21;93456.53;;;7.44;100.00
9277;BME280;4676;42.678;23.244;2024-03-02T03:13:51;93457.91;;;7.52;100.00
9277;BME280;4676;42.678;23.244;2024-03-02T03:16:19;93460.53;;;7.49;100.00
9277;BME280;4676;42.678;23.244;2024-03-02T03:18:46;93447.34;;;7.43;100.00
9277;BME280;4676;42.678;23.244;2024-03-02T03:21:15;93455.59;;;7.46;100.00
9277;BME280;4676;42.678;23.244;2024-03-02T03:23:42;93456.44;;;7.47;100.00
9277;BME280;4676;42.678;23.244;2024-03-02T03:26:08;93454.03;;;7.44;100.00
9277;BME280;4676;42.678;23.244;2024-03-02T03:28:35;93452.03;;;7.52;100.00
9277;BME280;4676;42.678;23.244;2024-03-02T03:31:03;93452.25;;;7.46;100.00
9277;BME280;4676;42.678;23.244;2024-03-02T03:33:30;93449.22;;;7.38;100.00
9277;BME280;4676;42.678;23.244;2024-03-02T03:35:57;93458.50;;;7.37;100.00
9277;BME280;4676;42.678;23.244;2024-03-02T03:38:24;93460.19;;;7.37;100.00
9277;BME280;4676;42.678;23.244;2024-03-02T03:40:50;93465.88;;;7.42;100.00
9277;BME280;4676;42.678;23.244;2024-03-02T03:43:17;93444.53;;;7.29;100.00
9277;BME280;4676;42.678;23.244;2024-03-02T03:45:44;93461.75;;;7.39;100.00
9277;BME280;4676;42.678;23.244;2024-03-02T03:48:12;93458.78;;;7.30;100.00
9277;BME280;4676;42.678;23.244;2024-03-02T03:50:38;93457.78;;;7.34;100.00
9277;BME280;4676;42.678;23.244;2024-03-02T03:53:05;93459.25;;;7.39;100.00
9277;BME280;4676;42.678;23.244;2024-03-02T03:55:32;93451.91;;;7.33;100.00
9277;BME280;4676;42.678;23.244;2024-03-02T03:57:58;93455.31;;;7.32;100.00
9277;BME280;4676;42.678;23.244;2024-03-02T04:00:24;93454.38;;;7.35;100.00
9277;BME280;4676;42.678;23.244;2024-03-02T04:02:51;93462.22;;;7.27;100.00
9277;BME280;4676;42.678;23.244;2024-03-02T04:05:19;93462.03;;;7.32;100.00
9277;BME280;4676;42.678;23.244;2024-03-02T04:07:46;93456.25;;;7.30;100.00
9277;BME280;4676;42.678;23.244;2024-03-02T04:10:12;93457.91;;;7.31;100.00
9277;BME280;4676;42.678;23.244;2024-03-02T04:12:39;93455.25;;;7.34;100.00
9277;BME280;4676;42.678;23.244;2024-03-02T04:15:07;93444.63;;;7.26;100.00
9277;BME280;4676;42.678;23.244;2024-03-02T04:17:34;93457.19;;;7.27;100.00
9277;BME280;4676;42.678;23.244;2024-03-02T04:20:01;93440.31;;;7.29;100.00
9277;BME280;4676;42.678;23.244;2024-03-02T04:22:32;93449.28;;;7.36;100.00
9277;BME280;4676;42.678;23.244;2024-03-02T04:25:02;93452.56;;;7.38;100.00
9277;BME280;4676;42.678;23.244;2024-03-02T04:27:30;93446.91;;;7.32;100.00
9277;BME280;4676;42.678;23.244;2024-03-02T04:29:57;93453.28;;;7.42;100.00
9277;BME280;4676;42.678;23.244;2024-03-02T04:32:25;93442.59;;;7.35;100.00
9277;BME280;4676;42.678;23.244;2024-03-02T04:34:52;93453.88;;;7.48;100.00
9277;BME280;4676;42.678;23.244;2024-03-02T04:37:19;93453.19;;;7.43;100.00
9277;BME280;4676;42.678;23.244;2024-03-02T04:39:47;93461.00;;;7.37;100.00
9277;BME280;4676;42.678;23.244;2024-03-02T04:42:15;93444.22;;;7.36;100.00
9277;BME280;4676;42.678;23.244;2024-03-02T04:44:42;93464.69;;;7.50;100.00
9277;BME280;4676;42.678;23.244;2024-03-02T04:47:08;93470.50;;;7.52;100.00
9277;BME280;4676;42.678;23.244;2024-03-02T04:49:35;93467.78;;;7.57;100.00
9277;BME280;4676;42.678;23.244;2024-03-02T04:52:02;93465.16;;;7.60;100.00
9277;BME280;4676;42.678;23.244;2024-03-02T04:54:29;93472.22;;;7.52;100.00
9277;BME280;4676;42.678;23.244;2024-03-02T04:56:57;93472.63;;;7.63;100.00
9277;BME280;4676;42.678;23.244;2024-03-02T04:59:23;93467.66;;;7.60;100.00
9277;BME280;4676;42.678;23.244;2024-03-02T05:01:50;93467.88;;;7.56;100.00
9277;BME280;4676;42.678;23.244;2024-03-02T05:04:17;93466.34;;;7.51;100.00
9277;BME280;4676;42.678;23.244;2024-03-02T05:06:43;93472.13;;;7.53;100.00
9277;BME280;4676;42.678;23.244;2024-03-02T05:09:16;93460.13;;;7.38;100.00
9277;BME280;4676;42.678;23.244;2024-03-02T05:11:42;93468.31;;;7.65;100.00
9277;BME280;4676;42.678;23.244;2024-03-02T05:14:36;93469.56;;;7.77;100.00
9277;BME280;4676;42.678;23.244;2024-03-02T05:17:03;93482.03;;;7.80;100.00
9277;BME280;4676;42.678;23.244;2024-03-02T05:19:30;93481.75;;;7.66;100.00
9277;BME280;4676;42.678;23.244;2024-03-02T05:21:57;93479.94;;;7.47;100.00
9277;BME280;4676;42.678;23.244;2024-03-02T05:24:23;93483.41;;;7.45;100.00
9277;BME280;4676;42.678;23.244;2024-03-02T05:26:52;93479.53;;;7.36;100.00
9277;BME280;4676;42.678;23.244;2024-03-02T05:29:19;93491.69;;;7.48;100.00
9277;BME280;4676;42.678;23.244;2024-03-02T05:31:47;93492.78;;;7.41;100.00
9277;BME280;4676;42.678;23.244;2024-03-02T05:34:14;93497.03;;;7.39;100.00
9277;BME280;4676;42.678;23.244;2024-03-02T05:36:40;93505.94;;;7.26;100.00
9277;BME280;4676;42.678;23.244;2024-03-02T05:39:07;93498.63;;;7.20;100.00
9277;BME280;4676;42.678;23.244;2024-03-02T05:41:35;93504.13;;;7.30;100.00
9277;BME280;4676;42.678;23.244;2024-03-02T05:44:03;93509.56;;;7.19;100.00
9277;BME280;4676;42.678;23.244;2024-03-02T05:46:30;93512.69;;;7.26;100.00
9277;BME280;4676;42.678;23.244;2024-03-02T05:48:58;93514.25;;;7.28;100.00
9277;BME280;4676;42.678;23.244;2024-03-02T05:51:25;93504.41;;;7.22;100.00
9277;BME280;4676;42.678;23.244;2024-03-02T05:53:52;93506.53;;;7.33;100.00
9277;BME280;4676;42.678;23.244;2024-03-02T05:56:18;93510.81;;;7.31;100.00
9277;BME280;4676;42.678;23.244;2024-03-02T05:58:45;93453.28;;;6.97;100.00
9277;BME280;4676;42.678;23.244;2024-03-02T06:01:23;93512.56;;;7.29;100.00
9277;BME280;4676;42.678;23.244;2024-03-02T06:03:53;93509.41;;;7.24;100.00
9277;BME280;4676;42.678;23.244;2024-03-02T06:06:22;93511.56;;;7.33;100.00
9277;BME280;4676;42.678;23.244;2024-03-02T06:08:49;93510.16;;;7.26;100.00
9277;BME280;4676;42.678;23.244;2024-03-02T06:11:16;93516.38;;;7.39;100.00
9277;BME280;4676;42.678;23.244;2024-03-02T06:13:43;93510.47;;;7.40;100.00
9277;BME280;4676;42.678;23.244;2024-03-02T06:16:10;93514.09;;;7.33;100.00
9277;BME280;4676;42.678;23.244;2024-03-02T06:18:36;93517.28;;;7.38;100.00
9277;BME280;4676;42.678;23.244;2024-03-02T06:21:04;93521.03;;;7.49;100.00
9277;BME280;4676;42.678;23.244;2024-03-02T06:23:32;93514.16;;;7.53;100.00
9277;BME280;4676;42.678;23.244;2024-03-02T06:26:00;93510.50;;;7.62;100.00
9277;BME280;4676;42.678;23.244;2024-03-02T06:28:27;93517.22;;;7.61;100.00
9277;BME280;4676;42.678;23.244;2024-03-02T06:30:54;93513.59;;;7.68;100.00
9277;BME280;4676;42.678;23.244;2024-03-02T06:33:21;93517.09;;;7.64;100.00
9277;BME280;4676;42.678;23.244;2024-03-02T06:35:47;93515.69;;;7.57;100.00
9277;BME280;4676;42.678;23.244;2024-03-02T06:38:14;93505.97;;;7.70;100.00
9277;BME280;4676;42.678;23.244;2024-03-02T06:40:43;93524.16;;;7.78;100.00
9277;BME280;4676;42.678;23.244;2024-03-02T06:43:09;93520.59;;;7.83;100.00
9277;BME280;4676;42.678;23.244;2024-03-02T06:45:36;93526.16;;;7.70;100.00
9277;BME280;4676;42.678;23.244;2024-03-02T06:48:03;93527.84;;;7.69;100.00
9277;BME280;4676;42.678;23.244;2024-03-02T06:50:30;93537.59;;;7.78;100.00
9277;BME280;4676;42.678;23.244;2024-03-02T06:52:58;93499.75;;;7.57;100.00
9277;BME280;4676;42.678;23.244;2024-03-02T06:55:25;93529.09;;;7.81;100.00
9277;BME280;4676;42.678;23.244;2024-03-02T06:57:53;93535.31;;;7.94;100.00
9277;BME280;4676;42.678;23.244;2024-03-02T07:00:20;93534.72;;;8.09;100.00
9277;BME280;4676;42.678;23.244;2024-03-02T07:02:47;93533.66;;;7.93;100.00
9277;BME280;4676;42.678;23.244;2024-03-02T07:05:13;93524.97;;;7.78;100.00
9277;BME280;4676;42.678;23.244;2024-03-02T07:07:40;93517.88;;;7.88;100.00
9277;BME280;4676;42.678;23.244;2024-03-02T07:10:07;93528.69;;;7.91;100.00
9277;BME280;4676;42.678;23.244;2024-03-02T07:12:34;93544.03;;;7.85;100.00
9277;BME280;4676;42.678;23.244;2024-03-02T07:15:02;93546.22;;;7.94;100.00
9277;BME280;4676;42.678;23.244;2024-03-02T07:17:50;93543.31;;;8.03;100.00
9277;BME280;4676;42.678;23.244;2024-03-02T07:20:17;93534.94;;;8.03;100.00
9277;BME280;4676;42.678;23.244;2024-03-02T07:22:43;93541.63;;;8.04;100.00
9277;BME280;4676;42.678;23.244;2024-03-02T07:25:10;93534.53;;;7.92;100.00
9277;BME280;4676;42.678;23.244;2024-03-02T07:27:37;93542.69;;;7.98;100.00
9277;BME280;4676;42.678;23.244;2024-03-02T07:30:06;93530.00;;;8.00;100.00
9277;BME280;4676;42.678;23.244;2024-03-02T07:32:33;93541.09;;;7.96;100.00
9277;BME280;4676;42.678;23.244;2024-03-02T07:35:00;93543.00;;;7.91;100.00
9277;BME280;4676;42.678;23.244;2024-03-02T07:37:29;93542.78;;;7.95;100.00
9277;BME280;4676;42.678;23.244;2024-03-02T07:39:55;93546.84;;;7.99;100.00
9277;BME280;4676;42.678;23.244;2024-03-02T07:42:22;93555.81;;;8.07;100.00
9277;BME280;4676;42.678;23.244;2024-03-02T07:44:49;93555.06;;;8.04;100.00
9277;BME280;4676;42.678;23.244;2024-03-02T07:47:17;93547.75;;;7.98;100.00
9277;BME280;4676;42.678;23.244;2024-03-02T07:49:44;93551.16;;;7.97;100.00
9277;BME280;4676;42.678;23.244;2024-03-02T07:52:11;93553.28;;;7.85;100.00
9277;BME280;4676;42.678;23.244;2024-03-02T07:54:38;93560.28;;;7.78;100.00
9277;BME280;4676;42.678;23.244;2024-03-02T07:57:05;93559.41;;;7.79;100.00
9277;BME280;4676;42.678;23.244;2024-03-02T07:59:31;93556.75;;;7.61;100.00
9277;BME280;4676;42.678;23.244;2024-03-02T08:01:58;93568.38;;;7.65;100.00
9277;BME280;4676;42.678;23.244;2024-03-02T08:04:27;93562.50;;;7.64;100.00
9277;BME280;4676;42.678;23.244;2024-03-02T08:06:54;93565.56;;;7.72;100.00
9277;BME280;4676;42.678;23.244;2024-03-02T08:09:21;93569.78;;;7.72;100.00
9277;BME280;4676;42.678;23.244;2024-03-02T08:11:47;93568.63;;;7.80;100.00
9277;BME280;4676;42.678;23.244;2024-03-02T08:14:14;93570.38;;;7.78;100.00
9277;BME280;4676;42.678;23.244;2024-03-02T08:16:41;93571.59;;;7.68;100.00
9277;BME280;4676;42.678;23.244;2024-03-02T08:19:08;93572.88;;;7.78;100.00
9277;BME280;4676;42.678;23.244;2024-03-02T08:21:36;93568.91;;;7.73;100.00
9277;BME280;4676;42.678;23.244;2024-03-02T08:24:04;93576.31;;;7.77;100.00
9277;BME280;4676;42.678;23.244;2024-03-02T08:26:31;93560.00;;;7.86;100.00
9277;BME280;4676;42.678;23.244;2024-03-02T08:28:58;93520.91;;;7.74;100.00
9277;BME280;4676;42.678;23.244;2024-03-02T08:31:26;93562.97;;;7.95;100.00
9277;BME280;4676;42.678;23.244;2024-03-02T08:33:53;93571.25;;;7.99;100.00
9277;BME280;4676;42.678;23.244;2024-03-02T08:36:20;93568.72;;;7.99;100.00
9277;BME280;4676;42.678;23.244;2024-03-02T08:38:49;93550.28;;;7.98;100.00
9277;BME280;4676;42.678;23.244;2024-03-02T08:41:17;93564.25;;;8.27;100.00
9277;BME280;4676;42.678;23.244;2024-03-02T08:43:44;93550.06;;;8.25;100.00
9277;BME280;4676;42.678;23.244;2024-03-02T08:46:10;93561.88;;;8.44;100.00
9277;BME280;4676;42.678;23.244;2024-03-02T08:48:37;93530.72;;;8.24;100.00
9277;BME280;4676;42.678;23.244;2024-03-02T08:51:04;93569.63;;;8.62;100.00
9277;BME280;4676;42.678;23.244;2024-03-02T08:53:33;93571.19;;;8.64;100.00
9277;BME280;4676;42.678;23.244;2024-03-02T08:56:01;93573.47;;;8.70;100.00
9277;BME280;4676;42.678;23.244;2024-03-02T08:58:30;93576.56;;;8.77;100.00
9277;BME280;4676;42.678;23.244;2024-03-02T09:00:57;93581.59;;;8.77;100.00
9277;BME280;4676;42.678;23.244;2024-03-02T09:03:24;93576.06;;;8.89;100.00
9277;BME280;4676;42.678;23.244;2024-03-02T09:05:50;93577.63;;;8.91;100.00
9277;BME280;4676;42.678;23.244;2024-03-02T09:08:17;93571.75;;;8.91;100.00
9277;BME280;4676;42.678;23.244;2024-03-02T09:10:44;93585.59;;;9.02;100.00
9277;BME280;4676;42.678;23.244;2024-03-02T09:13:12;93586.78;;;9.14;100.00
9277;BME280;4676;42.678;23.244;2024-03-02T09:15:39;93580.53;;;9.02;100.00
9277;BME280;4676;42.678;23.244;2024-03-02T09:18:06;93591.34;;;9.06;100.00
9277;BME280;4676;42.678;23.244;2024-03-02T09:20:33;93595.28;;;9.12;100.00
9277;BME280;4676;42.678;23.244;2024-03-02T09:22:59;93592.97;;;9.07;100.00
9277;BME280;4676;42.678;23.244;2024-03-02T09:25:26;93594.50;;;9.11;100.00
9277;BME280;4676;42.678;23.244;2024-03-02T09:27:53;93594.59;;;9.08;100.00
9277;BME280;4676;42.678;23.244;2024-03-02T09:30:21;93600.25;;;9.15;100.00
9277;BME280;4676;42.678;23.244;2024-03-02T09:32:48;93590.56;;;9.24;100.00
9277;BME280;4676;42.678;23.244;2024-03-02T09:35:15;93599.28;;;9.36;100.00
9277;BME280;4676;42.678;23.244;2024-03-02T09:37:41;93585.91;;;9.34;100.00
9277;BME280;4676;42.678;23.244;2024-03-02T09:40:09;93607.75;;;9.55;100.00
9277;BME280;4676;42.678;23.244;2024-03-02T09:42:37;93603.97;;;9.45;100.00
9277;BME280;4676;42.678;23.244;2024-03-02T09:45:04;93605.88;;;9.40;100.00
9277;BME280;4676;42.678;23.244;2024-03-02T09:47:33;93603.69;;;9.51;100.00
9277;BME280;4676;42.678;23.244;2024-03-02T09:49:59;93606.38;;;9.67;100.00
9277;BME280;4676;42.678;23.244;2024-03-02T09:52:26;93600.34;;;9.50;100.00
9277;BME280;4676;42.678;23.244;2024-03-02T09:54:53;93558.56;;;9.23;100.00
9277;BME280;4676;42.678;23.244;2024-03-02T09:57:20;93593.63;;;9.31;100.00
9277;BME280;4676;42.678;23.244;2024-03-02T09:59:47;93601.97;;;9.33;100.00
9277;BME280;4676;42.678;23.244;2024-03-02T10:02:13;93586.25;;;9.26;100.00
9277;BME280;4676;42.678;23.244;2024-03-02T10:04:41;93605.19;;;9.36;100.00
9277;BME280;4676;42.678;23.244;2024-03-02T10:07:12;93601.97;;;9.33;100.00
9277;BME280;4676;42.678;23.244;2024-03-02T10:09:39;93602.19;;;9.28;100.00
9277;BME280;4676;42.678;23.244;2024-03-02T10:12:07;93604.56;;;9.31;100.00
9277;BME280;4676;42.678;23.244;2024-03-02T10:14:34;93602.19;;;9.28;100.00
9277;BME280;4676;42.678;23.244;2024-03-02T10:17:06;93598.31;;;9.20;100.00
9277;BME280;4676;42.678;23.244;2024-03-02T10:19:33;93596.44;;;9.25;100.00
9277;BME280;4676;42.678;23.244;2024-03-02T10:22:04;93594.50;;;9.30;100.00
9277;BME280;4676;42.678;23.244;2024-03-02T10:24:41;93592.75;;;9.32;100.00
9277;BME280;4676;42.678;23.244;2024-03-02T10:27:10;93566.69;;;9.30;100.00
9277;BME280;4676;42.678;23.244;2024-03-02T10:29:40;93597.41;;;9.41;100.00
9277;BME280;4676;42.678;23.244;2024-03-02T10:32:09;93578.88;;;9.40;100.00
9277;BME280;4676;42.678;23.244;2024-03-02T10:34:36;93597.00;;;9.50;100.00
9277;BME280;4676;42.678;23.244;2024-03-02T10:37:05;93594.47;;;9.31;100.00
9277;BME280;4676;42.678;23.244;2024-03-02T10:39:32;93538.16;;;8.89;100.00
9277;BME280;4676;42.678;23.244;2024-03-02T10:42:02;93585.13;;;9.13;100.00
9277;BME280;4676;42.678;23.244;2024-03-02T10:44:30;93564.13;;;8.92;100.00
9277;BME280;4676;42.678;23.244;2024-03-02T10:47:00;93585.88;;;9.15;100.00
9277;BME280;4676;42.678;23.244;2024-03-02T10:49:29;93524.00;;;8.85;100.00
9277;BME280;4676;42.678;23.244;2024-03-02T10:51:56;93583.06;;;9.02;100.00
9277;BME280;4676;42.678;23.244;2024-03-02T10:54:24;93577.56;;;9.13;100.00
9277;BME280;4676;42.678;23.244;2024-03-02T10:56:55;93579.63;;;9.24;100.00
9277;BME280;4676;42.678;23.244;2024-03-02T10:59:27;93570.94;;;9.11;100.00
9277;BME280;4676;42.678;23.244;2024-03-02T11:01:56;93582.66;;;9.32;100.00
9277;BME280;4676;42.678;23.244;2024-03-02T11:04:25;93581.19;;;9.26;100.00
9277;BME280;4676;42.678;23.244;2024-03-02T11:06:56;93577.97;;;9.23;100.00
9277;BME280;4676;42.678;23.244;2024-03-02T11:09:28;93578.59;;;9.28;100.00
9277;BME280;4676;42.678;23.244;2024-03-02T11:14:45;93570.78;;;9.32;100.00
9277;BME280;4676;42.678;23.244;2024-03-02T11:17:14;93565.00;;;9.30;100.00
9277;BME280;4676;42.678;23.244;2024-03-02T11:19:42;93573.28;;;9.34;100.00
9277;BME280;4676;42.678;23.244;2024-03-02T11:22:10;93566.50;;;9.34;100.00
9277;BME280;4676;42.678;23.244;2024-03-02T11:24:38;93573.00;;;9.40;100.00
9277;BME280;4676;42.678;23.244;2024-03-02T11:27:06;93569.88;;;9.35;100.00
9277;BME280;4676;42.678;23.244;2024-03-02T11:29:43;93562.69;;;9.44;100.00
9277;BME280;4676;42.678;23.244;2024-03-02T11:32:17;93565.41;;;9.21;100.00
9277;BME280;4676;42.678;23.244;2024-03-02T11:34:49;93564.94;;;9.32;100.00
9277;BME280;4676;42.678;23.244;2024-03-02T11:37:17;93553.59;;;9.40;100.00
9277;BME280;4676;42.678;23.244;2024-03-02T11:39:46;93551.75;;;9.44;100.00
9277;BME280;4676;42.678;23.244;2024-03-02T11:42:14;93557.34;;;9.50;100.00
9277;BME280;4676;42.678;23.244;2024-03-02T11:44:43;93564.16;;;9.30;100.00
9277;BME280;4676;42.678;23.244;2024-03-02T11:47:12;93559.91;;;9.12;100.00
9277;BME280;4676;42.678;23.244;2024-03-02T11:49:44;93565.03;;;9.10;100.00
9277;BME280;4676;42.678;23.244;2024-03-02T11:52:12;93565.91;;;9.09;100.00
9277;BME280;4676;42.678;23.244;2024-03-02T11:54:41;93565.59;;;9.17;100.00
9277;BME280;4676;42.678;23.244;2024-03-02T11:57:16;93562.25;;;9.16;100.00
9277;BME280;4676;42.678;23.244;2024-03-02T11:59:43;93555.31;;;9.21;100.00
9277;BME280;4676;42.678;23.244;2024-03-02T12:02:15;93561.97;;;9.22;100.00
9277;BME280;4676;42.678;23.244;2024-03-02T12:04:42;93562.28;;;9.35;100.00
9277;BME280;4676;42.678;23.244;2024-03-02T12:07:10;93554.47;;;9.39;100.00
9277;BME280;4676;42.678;23.244;2024-03-02T12:09:37;93556.31;;;9.36;100.00
9277;BME280;4676;42.678;23.244;2024-03-02T12:12:05;93566.56;;;9.33;100.00
9277;BME280;4676;42.678;23.244;2024-03-02T12:14:34;93566.31;;;9.39;100.00
9277;BME280;4676;42.678;23.244;2024-03-02T12:17:03;93560.69;;;9.32;100.00
9277;BME280;4676;42.678;23.244;2024-03-02T12:19:30;93533.22;;;9.25;100.00
9277;BME280;4676;42.678;23.244;2024-03-02T12:21:58;93561.38;;;9.36;100.00
9277;BME280;4676;42.678;23.244;2024-03-02T12:24:27;93556.59;;;9.48;100.00
9277;BME280;4676;42.678;23.244;2024-03-02T12:26:54;93567.75;;;9.63;100.00
9277;BME280;4676;42.678;23.244;2024-03-02T12:29:22;93563.72;;;9.59;100.00
9277;BME280;4676;42.678;23.244;2024-03-02T12:31:51;93563.09;;;9.73;100.00
9277;BME280;4676;42.678;23.244;2024-03-02T12:34:19;93563.63;;;9.79;100.00
9277;BME280;4676;42.678;23.244;2024-03-02T12:36:46;93558.56;;;9.79;100.00
9277;BME280;4676;42.678;23.244;2024-03-02T12:39:15;93555.69;;;9.87;100.00
9277;BME280;4676;42.678;23.244;2024-03-02T12:41:42;93559.72;;;9.91;100.00
9277;BME280;4676;42.678;23.244;2024-03-02T12:44:09;93559.00;;;9.70;100.00
9277;BME280;4676;42.678;23.244;2024-03-02T12:46:35;93567.75;;;9.63;100.00
9277;BME280;4676;42.678;23.244;2024-03-02T12:49:09;93567.53;;;9.68;100.00
9277;BME280;4676;42.678;23.244;2024-03-02T12:51:37;93565.63;;;9.54;100.00
9277;BME280;4676;42.678;23.244;2024-03-02T12:54:05;93565.91;;;9.67;100.00
9277;BME280;4676;42.678;23.244;2024-03-02T12:56:32;93565.44;;;9.59;100.00
9277;BME280;4676;42.678;23.244;2024-03-02T12:58:59;93565.22;;;9.63;100.00
9277;BME280;4676;42.678;23.244;2024-03-02T13:01:26;93563.53;;;9.64;100.00
9277;BME280;4676;42.678;23.244;2024-03-02T13:03:53;93571.38;;;9.76;100.00
9277;BME280;4676;42.678;23.244;2024-03-02T13:06:23;93565.88;;;9.85;100.00
9277;BME280;4676;42.678;23.244;2024-03-02T13:08:52;93561.94;;;9.80;100.00
9277;BME280;4676;42.678;23.244;2024-03-02T13:11:21;93569.66;;;9.77;100.00
9277;BME280;4676;42.678;23.244;2024-03-02T13:13:48;93572.28;;;9.57;100.00
9277;BME280;4676;42.678;23.244;2024-03-02T13:16:14;93553.03;;;9.34;100.00